• Join FlightAware (Why Join?)
  • Login
  • US Flag 
05:10AM EDT


 

Airport Tracker/Info


-or-


 

Live Flight TrackerFlight Track Log ✈ ADR726 ✈ 16-Jan-2014 ✈ LJLJ / LJU - LATI / TIA

Flight Track Log - Related Links

Times and Time Zones

All times are in EST time to prevent confusion due to time zone crossing. See the ADR726 flight status page for this flight to view local times or setup timezone preferences in your user account.

Time Position Orientation Groundspeed Altitude Reporting Facility
EST Latitude Longitude Course Direction KTS MPH feet Rate Location/Type
05:57PM 45.7537 15.0241 140° Southeast  Level Estimated
05:58PM 45.6751 15.1175 140° Southeast  Level Estimated
05:59PM 45.5964 15.2108 140° Southeast  Level Estimated
06:00PM 45.5177 15.3037 140° Southeast  Level Estimated
06:01PM 45.4389 15.3964 140° Southeast  Level Estimated
06:02PM 45.3600 15.4889 141° Southeast  Level Estimated
06:03PM 45.2810 15.5810 141° Southeast  Level Estimated
06:04PM 45.2019 15.6730 141° Southeast  Level Estimated
06:05PM 45.1228 15.7646 141° Southeast  Level Estimated
06:06PM 45.0436 15.8561 141° Southeast  Level Estimated
06:07PM 44.9643 15.9472 141° Southeast  Level Estimated
06:08PM 44.8850 16.0381 141° Southeast  Level Estimated
06:09PM 44.8056 16.1288 141° Southeast  Level Estimated
06:10PM 44.7261 16.2192 141° Southeast  Level Estimated
06:11PM 44.6465 16.3094 141° Southeast  Level Estimated
06:12PM 44.5669 16.3993 141° Southeast  Level Estimated
06:13PM 44.4872 16.4890 141° Southeast  Level Estimated
06:14PM 44.4074 16.5784 141° Southeast  Level Estimated
06:15PM 44.3276 16.6676 141° Southeast  Level Estimated
06:16PM 44.2477 16.7565 141° Southeast  Level Estimated
06:17PM 44.1677 16.8452 141° Southeast  Level Estimated
06:18PM 44.0877 16.9337 142° Southeast  Level Estimated
06:19PM 44.0076 17.0219 142° Southeast  Level Estimated
06:20PM 43.9274 17.1099 142° Southeast  Level Estimated
06:21PM 43.8471 17.1976 142° Southeast  Level Estimated
06:22PM 43.7668 17.2851 142° Southeast  Level Estimated
06:23PM 43.6865 17.3724 142° Southeast  Level Estimated
06:24PM 43.6060 17.4594 142° Southeast  Level Estimated
06:25PM 43.5255 17.5462 142° Southeast  Level Estimated
06:26PM 43.4449 17.6328 142° Southeast  Level Estimated
06:27PM 43.3643 17.7191 142° Southeast  Level Estimated
06:28PM 43.2836 17.8053 142° Southeast  Level Estimated
06:29PM 43.2028 17.8911 142° Southeast  Level Estimated
06:30PM 43.1220 17.9768 142° Southeast  Level Estimated
06:31PM 43.0411 18.0622 142° Southeast  Level Estimated
06:32PM 42.9601 18.1474 142° Southeast  Level Estimated
06:33PM 42.8791 18.2324 142° Southeast  Level Estimated
06:34PM 42.7980 18.3172 143° Southeast  Level Estimated
06:35PM 42.7169 18.4017 143° Southeast  Level Estimated
06:36PM 42.6356 18.4860 143° Southeast  Level Estimated
06:37PM 42.5544 18.5701 143° Southeast  Level Estimated
06:38PM 42.4730 18.6540 143° Southeast  Level Estimated
06:39PM 42.3916 18.7377 143° Southeast  Level Estimated
06:40PM 42.3102 18.8211 143° Southeast  Level Estimated
06:41PM 42.2286 18.9044 143° Southeast  Level Estimated
06:42PM 42.1471 18.9874 143° Southeast  Level Estimated
06:43PM 42.0654 19.0702 143° Southeast  Level Estimated
06:44PM 41.9837 19.1528 143° Southeast  Level Estimated
06:45PM 41.9020 19.2351 143° Southeast  Level Estimated
06:46PM 41.8202 19.3173 143° Southeast  Level Estimated
06:47PM 41.7383 19.3993 143° Southeast  Level Estimated
06:48PM 41.6564 19.4810 143° Southeast  Level Estimated
06:49PM 41.5744 19.5626 143° Southeast  Level Estimated
06:50PM 41.4923 19.6439 143° Southeast  Level Estimated
06:51PM 41.4147 19.7206 143° Southeast  Level Estimated
06:52PM 41.4147 19.7206 21° North  Level Estimated
06:53PM 41.4147 19.7206 21° North  Level Estimated
06:54PM 41.4147 19.7206 21° North  Level Estimated
06:55PM 41.4147 19.7206 21° North  Level Estimated
06:56PM 41.4147 19.7206 21° North  Level Estimated
06:57PM 41.4147 19.7206 21° North  Level Estimated
06:58PM 41.4147 19.7206 21° North  Level Estimated
06:59PM 41.4147 19.7206 21° North  Level Estimated
07:00PM 41.4147 19.7206 21° North  Level Estimated
07:01PM 41.4147 19.7206 21° North  Level Estimated
07:02PM 41.4147 19.7206 21° North  Level Estimated
07:03PM 41.4147 19.7206 21° North  Level Estimated
07:04PM 41.4147 19.7206 21° North  Level Estimated
07:05PM 41.4147 19.7206 21° North  Level Estimated
07:06PM 41.4147 19.7206 21° North  Level Estimated
07:07PM 41.4147 19.7206 21° North  Level Estimated